createdAt,value
2022-08-04T00:01:17.716Z,69.10
2022-08-04T00:03:52.365Z,69.20
2022-08-04T00:06:34.344Z,69.10
2022-08-04T00:09:04.922Z,69.30
2022-08-04T00:11:33.918Z,69.30
2022-08-04T00:14:03.911Z,69.20
2022-08-04T00:16:38.587Z,69.30
2022-08-04T00:19:17.403Z,69.40
2022-08-04T00:21:48.921Z,69.50
2022-08-04T00:24:16.967Z,69.50
2022-08-04T00:26:44.397Z,69.60
2022-08-04T00:29:11.457Z,69.60
2022-08-04T00:31:56.650Z,69.70
2022-08-04T00:34:26.073Z,69.70
2022-08-04T00:36:54.582Z,69.80
2022-08-04T00:39:21.858Z,69.90
2022-08-04T00:42:00.555Z,69.90
2022-08-04T00:44:50.873Z,70.00
2022-08-04T00:47:36.889Z,70.00
2022-08-04T00:50:10.363Z,70.20
2022-08-04T00:52:55.170Z,70.20
2022-08-04T00:56:00.627Z,70.20
2022-08-04T00:58:38.324Z,70.40
2022-08-04T01:01:14.180Z,70.30
2022-08-04T01:03:50.975Z,70.40
2022-08-04T01:06:29.273Z,70.60
2022-08-04T01:09:07.819Z,70.60
2022-08-04T01:11:57.632Z,70.60
2022-08-04T01:14:37.662Z,70.60
2022-08-04T01:17:19.101Z,70.70
2022-08-04T01:20:05.319Z,70.70
2022-08-04T01:23:05.757Z,70.80
2022-08-04T01:26:43.736Z,70.90
2022-08-04T01:29:09.728Z,71.10
2022-08-04T01:31:57.592Z,71.00
2022-08-04T01:34:29.847Z,71.20
2022-08-04T01:37:00.724Z,71.00
2022-08-04T01:39:42.017Z,71.50
2022-08-04T01:42:11.411Z,71.40
2022-08-04T01:44:41.682Z,71.40
2022-08-04T01:47:10.167Z,71.40
2022-08-04T01:49:40.305Z,71.70
2022-08-04T01:52:10.993Z,71.70
2022-08-04T01:54:41.272Z,71.50
2022-08-04T01:57:37.207Z,71.70
2022-08-04T01:59:59.853Z,71.80
2022-08-04T02:02:27.357Z,71.90
2022-08-04T02:04:54.783Z,71.70
2022-08-04T02:07:33.373Z,72.00
2022-08-04T02:10:05.920Z,72.00
2022-08-04T02:12:55.319Z,71.90
2022-08-04T02:15:29.932Z,72.10
2022-08-04T02:18:02.332Z,72.20
2022-08-04T02:20:33.795Z,72.10
2022-08-04T02:23:02.254Z,72.00
2022-08-04T02:25:34.171Z,72.00
2022-08-04T02:28:23.337Z,72.20
2022-08-04T02:31:07.846Z,72.20
2022-08-04T02:33:37.564Z,72.40
2022-08-04T02:36:09.280Z,72.20
2022-08-04T02:38:54.998Z,72.30
2022-08-04T02:41:24.579Z,72.60
2022-08-04T02:43:55.202Z,72.60
2022-08-04T02:46:24.137Z,72.50
2022-08-04T02:48:53.265Z,72.70
2022-08-04T02:51:23.517Z,72.80
2022-08-04T02:53:55.329Z,72.70
2022-08-04T02:56:23.355Z,72.90
2022-08-04T02:58:53.411Z,72.80
2022-08-04T03:01:25.093Z,72.90
2022-08-04T03:04:09.817Z,73.00
2022-08-04T03:07:16.699Z,73.00
2022-08-04T03:10:26.550Z,73.30
2022-08-04T03:13:33.576Z,73.20
2022-08-04T03:16:15.988Z,73.30
2022-08-04T03:19:32.489Z,73.40
2022-08-04T03:22:23.993Z,73.70
2022-08-04T03:25:25.130Z,73.60
2022-08-04T03:28:27.537Z,73.70
2022-08-04T03:31:15.404Z,73.90
2022-08-04T03:33:59.591Z,73.80
2022-08-04T03:36:41.217Z,73.90
2022-08-04T03:39:39.080Z,74.00
2022-08-04T03:42:26.895Z,74.00
2022-08-04T03:45:24.371Z,74.00
2022-08-04T03:48:29.304Z,74.20
2022-08-04T03:51:35.093Z,74.30
2022-08-04T03:57:38.190Z,74.50
2022-08-04T04:00:09.160Z,74.00
2022-08-04T04:03:02.734Z,74.20
2022-08-04T04:06:00.080Z,73.90
2022-08-04T04:09:16.116Z,74.50
2022-08-04T04:12:32.515Z,74.70
2022-08-04T04:18:42.381Z,74.90
2022-08-04T04:21:28.223Z,74.80
2022-08-04T04:24:16.799Z,75.00
2022-08-04T04:26:58.962Z,75.10
2022-08-04T04:29:54.545Z,75.10
2022-08-04T04:32:27.828Z,75.00
2022-08-04T04:35:11.256Z,75.10
2022-08-04T04:37:51.348Z,75.10
2022-08-04T04:40:34.144Z,75.20
2022-08-04T04:43:13.991Z,75.30
2022-08-04T04:45:51.163Z,75.30
2022-08-04T04:48:29.631Z,75.30
2022-08-04T04:51:14.259Z,75.40
2022-08-04T04:54:00.535Z,75.50
2022-08-04T04:56:40.620Z,75.40
2022-08-04T04:59:15.532Z,75.30
2022-08-04T05:02:06.549Z,75.30
2022-08-04T05:04:55.075Z,75.30
2022-08-04T05:07:38.278Z,75.50
2022-08-04T05:10:17.495Z,75.40
2022-08-04T05:14:34.917Z,75.60
2022-08-04T05:15:56.335Z,75.50
2022-08-04T05:18:26.879Z,75.50
2022-08-04T05:20:58.553Z,75.50
2022-08-04T05:23:29.112Z,75.60
2022-08-04T05:26:01.500Z,75.60
2022-08-04T05:28:36.492Z,75.60
2022-08-04T05:31:10.592Z,75.60
2022-08-04T05:33:42.773Z,75.10
2022-08-04T05:36:21.659Z,75.30
2022-08-04T05:39:01.044Z,75.30
2022-08-04T05:41:32.348Z,75.20
2022-08-04T05:44:15.289Z,75.00
2022-08-04T05:46:44.060Z,75.00
2022-08-04T05:49:19.387Z,74.60
2022-08-04T05:51:49.648Z,75.00
2022-08-04T05:54:18.489Z,74.70
2022-08-04T05:56:46.164Z,74.90
2022-08-04T05:59:16.976Z,74.90
2022-08-04T06:01:56.688Z,74.80
2022-08-04T06:04:27.875Z,74.50
2022-08-04T06:06:55.402Z,74.00
2022-08-04T06:09:22.778Z,74.10
2022-08-04T06:12:03.440Z,73.90
2022-08-04T06:14:39.643Z,74.30
2022-08-04T06:18:33.110Z,73.90
2022-08-04T06:20:18.934Z,73.70
2022-08-04T06:22:46.373Z,74.10
2022-08-04T06:25:19.030Z,74.20
2022-08-04T06:27:46.864Z,74.30
2022-08-04T06:30:16.258Z,74.50
2022-08-04T06:32:48.103Z,74.10
2022-08-04T06:35:19.902Z,74.40
2022-08-04T06:37:48.569Z,74.40
2022-08-04T06:40:30.693Z,74.40
2022-08-04T06:43:00.833Z,74.00
2022-08-04T06:45:30.163Z,74.50
2022-08-04T06:47:58.423Z,74.80
2022-08-04T06:51:26.387Z,74.50
2022-08-04T06:53:13.522Z,74.90
2022-08-04T06:55:42.718Z,75.10
2022-08-04T06:58:10.928Z,74.90
2022-08-04T07:00:41.333Z,74.90
2022-08-04T07:03:08.871Z,74.70
2022-08-04T07:05:36.548Z,74.60
2022-08-04T07:08:04.949Z,74.70
2022-08-04T07:10:32.747Z,74.40
2022-08-04T07:13:01.627Z,74.60
2022-08-04T07:15:29.680Z,74.50
2022-08-04T07:18:00.240Z,74.20
2022-08-04T07:20:34.911Z,74.10
2022-08-04T07:23:04.255Z,74.50
2022-08-04T07:25:58.608Z,74.20
2022-08-04T07:28:19.557Z,74.80
2022-08-04T07:30:48.001Z,74.50
2022-08-04T07:33:16.904Z,74.60
2022-08-04T07:36:09.947Z,74.70
2022-08-04T07:38:46.247Z,74.40
2022-08-04T07:41:37.251Z,74.00
2022-08-04T07:44:05.007Z,73.70
2022-08-04T07:46:32.392Z,73.20
2022-08-04T07:49:02.424Z,72.80
2022-08-04T07:51:30.779Z,72.80
2022-08-04T07:53:58.619Z,72.70
2022-08-04T07:56:26.565Z,72.80
2022-08-04T07:58:53.979Z,72.20
2022-08-04T08:01:21.921Z,72.10
2022-08-04T08:03:50.516Z,72.10
2022-08-04T08:06:33.118Z,71.70
2022-08-04T08:09:12.444Z,71.60
2022-08-04T08:12:37.423Z,71.30
2022-08-04T08:14:30.259Z,71.40
2022-08-04T08:16:59.144Z,71.20
2022-08-04T08:19:29.048Z,71.20
2022-08-04T08:21:59.241Z,71.60
2022-08-04T08:24:27.203Z,71.10
2022-08-04T08:26:54.513Z,70.50
2022-08-04T08:29:22.171Z,70.30
2022-08-04T08:31:56.256Z,70.20
2022-08-04T08:34:28.294Z,70.40
2022-08-04T08:37:02.872Z,70.10
2022-08-04T08:39:38.734Z,69.90
2022-08-04T08:42:38.571Z,69.20
2022-08-04T08:45:38.871Z,68.60
2022-08-04T08:48:26.899Z,68.60
2022-08-04T08:51:16.231Z,68.50
2022-08-04T08:54:10.149Z,68.70
2022-08-04T08:56:47.188Z,68.60
2022-08-04T08:59:36.066Z,68.40
2022-08-04T09:02:47.982Z,67.90
2022-08-04T09:05:51.163Z,67.50
2022-08-04T09:08:42.174Z,67.70
2022-08-04T09:11:15.763Z,67.20
2022-08-04T09:13:48.365Z,67.10
2022-08-04T09:16:19.349Z,67.20
2022-08-04T09:18:53.952Z,66.70
2022-08-04T09:21:29.837Z,66.50
2022-08-04T09:24:34.813Z,66.30
2022-08-04T09:27:00.633Z,66.20
2022-08-04T09:29:36.327Z,65.10
2022-08-04T09:32:10.516Z,64.90
2022-08-04T09:34:47.766Z,65.00
2022-08-04T09:37:45.769Z,64.50
2022-08-04T09:40:29.230Z,64.90
2022-08-04T09:43:15.041Z,63.70
2022-08-04T09:45:56.013Z,64.00
2022-08-04T09:48:35.738Z,64.40
2022-08-04T09:51:13.458Z,64.10
2022-08-04T09:53:53.705Z,64.80
2022-08-04T09:56:28.149Z,64.40
2022-08-04T09:59:07.821Z,65.10
2022-08-04T10:01:36.769Z,64.20
2022-08-04T10:04:07.938Z,63.70
2022-08-04T10:07:04.636Z,64.60
2022-08-04T10:09:43.298Z,64.60
2022-08-04T10:12:25.263Z,64.70
2022-08-04T10:15:03.610Z,64.80
2022-08-04T10:17:50.658Z,64.40
2022-08-04T10:20:45.889Z,64.50
2022-08-04T10:23:27.752Z,64.70
2022-08-04T10:26:19.184Z,64.40
2022-08-04T10:28:53.597Z,64.10
2022-08-04T10:31:28.045Z,64.30
2022-08-04T10:34:01.798Z,64.60
2022-08-04T10:36:33.003Z,65.10
2022-08-04T10:39:07.385Z,64.80
2022-08-04T10:41:50.934Z,64.80
2022-08-04T10:44:25.414Z,64.40
2022-08-04T10:46:58.496Z,64.70
2022-08-04T10:49:34.833Z,64.50
2022-08-04T10:52:07.654Z,64.90
2022-08-04T10:54:46.436Z,64.50
2022-08-04T10:57:20.374Z,64.90
2022-08-04T10:59:53.748Z,64.60
2022-08-04T11:02:37.855Z,64.70
2022-08-04T11:05:19.274Z,64.60
2022-08-04T11:07:50.238Z,64.20
2022-08-04T11:10:20.797Z,64.10
2022-08-04T11:12:56.658Z,64.30
2022-08-04T11:15:28.447Z,64.00
2022-08-04T11:17:59.481Z,63.70
2022-08-04T11:20:35.539Z,63.40
2022-08-04T11:23:08.135Z,63.30
2022-08-04T11:25:47.151Z,63.60
2022-08-04T11:28:24.020Z,63.10
2022-08-04T11:30:57.702Z,62.50
2022-08-04T11:33:36.737Z,62.60
2022-08-04T11:36:14.144Z,62.40
2022-08-04T11:38:50.897Z,62.40
2022-08-04T11:41:24.462Z,62.80
2022-08-04T11:44:03.876Z,62.70
2022-08-04T11:46:39.941Z,62.20
2022-08-04T11:49:16.349Z,62.10
2022-08-04T11:51:45.853Z,62.10
2022-08-04T11:54:13.686Z,61.90
2022-08-04T11:56:40.717Z,61.80
2022-08-04T11:59:08.879Z,61.90
2022-08-04T12:01:47.700Z,61.40
2022-08-04T12:04:24.356Z,61.60
2022-08-04T12:07:21.388Z,61.60
2022-08-04T12:09:48.873Z,61.30
2022-08-04T12:12:23.798Z,61.70
2022-08-04T12:14:59.492Z,61.40
2022-08-04T12:17:52.106Z,60.90
2022-08-04T12:20:38.255Z,61.50
2022-08-04T12:23:15.835Z,61.10
2022-08-04T12:25:47.743Z,60.90
2022-08-04T12:28:22.465Z,60.60
2022-08-04T12:30:57.556Z,61.20
2022-08-04T12:34:02.717Z,61.30
2022-08-04T12:36:29.410Z,61.10
2022-08-04T12:39:03.096Z,60.90
2022-08-04T12:41:36.350Z,60.70
2022-08-04T12:44:33.467Z,60.90
2022-08-04T12:47:26.571Z,60.90
2022-08-04T12:50:00.441Z,61.00
2022-08-04T12:53:00.480Z,60.90
2022-08-04T12:55:22.896Z,60.70
2022-08-04T12:57:53.241Z,60.70
2022-08-04T13:00:29.889Z,60.80
2022-08-04T13:03:05.295Z,60.30
2022-08-04T13:05:39.658Z,60.30
2022-08-04T13:08:09.894Z,60.60
2022-08-04T13:10:40.071Z,60.70
2022-08-04T13:13:13.589Z,60.20
2022-08-04T13:15:47.456Z,60.00
2022-08-04T13:18:32.360Z,60.10
2022-08-04T13:21:20.133Z,60.20
2022-08-04T13:24:10.024Z,60.20
2022-08-04T13:26:54.711Z,59.80
2022-08-04T13:29:59.625Z,59.20
2022-08-04T13:32:15.151Z,59.40
2022-08-04T13:34:49.120Z,59.40
2022-08-04T13:37:24.987Z,59.60
2022-08-04T13:39:55.626Z,59.40
2022-08-04T13:42:24.083Z,58.90
2022-08-04T13:44:56.747Z,58.80
2022-08-04T13:47:27.950Z,58.40
2022-08-04T13:50:17.879Z,58.30
2022-08-04T13:52:46.957Z,57.80
2022-08-04T13:55:27.888Z,57.60
2022-08-04T13:57:59.164Z,58.10
2022-08-04T14:00:37.288Z,57.50
2022-08-04T14:03:19.057Z,57.80
2022-08-04T14:06:20.208Z,57.90
2022-08-04T14:08:50.391Z,57.30
2022-08-04T14:12:09.750Z,57.10
2022-08-04T14:14:21.145Z,57.20
2022-08-04T14:16:59.524Z,57.10
2022-08-04T14:19:31.044Z,56.90
2022-08-04T14:22:03.145Z,56.20
2022-08-04T14:24:30.053Z,55.60
2022-08-04T14:27:01.090Z,55.30
2022-08-04T14:29:37.726Z,56.50
2022-08-04T14:32:12.748Z,55.80
2022-08-04T14:34:45.341Z,56.50
2022-08-04T14:37:19.413Z,55.90
2022-08-04T14:40:08.885Z,56.80
2022-08-04T14:42:54.619Z,56.60
2022-08-04T14:45:32.038Z,57.10
2022-08-04T14:47:59.756Z,56.20
2022-08-04T14:50:35.875Z,56.60
2022-08-04T14:53:04.705Z,56.20
2022-08-04T14:55:31.803Z,55.70
2022-08-04T14:58:36.109Z,55.50
2022-08-04T15:00:48.979Z,55.20
2022-08-04T15:03:18.005Z,55.40
2022-08-04T15:06:02.227Z,55.90
2022-08-04T15:08:32.963Z,56.20
2022-08-04T15:11:03.133Z,55.80
2022-08-04T15:13:32.489Z,55.30
2022-08-04T15:16:04.090Z,55.70
2022-08-04T15:18:35.401Z,54.60
2022-08-04T15:21:03.789Z,55.30
2022-08-04T15:23:33.341Z,54.30
2022-08-04T15:26:09.344Z,54.60
2022-08-04T15:28:40.537Z,54.30
2022-08-04T15:31:10.633Z,54.60
2022-08-04T15:33:56.790Z,55.30
2022-08-04T15:36:34.609Z,55.10
2022-08-04T15:39:07.003Z,54.50
2022-08-04T15:41:53.791Z,54.70
2022-08-04T15:45:00.722Z,55.00
2022-08-04T15:48:02.238Z,55.10
2022-08-04T15:50:29.913Z,55.50
2022-08-04T15:53:10.350Z,55.70
2022-08-04T15:55:42.140Z,55.10
2022-08-04T15:58:12.952Z,55.10
2022-08-04T16:01:14.732Z,55.70
2022-08-04T16:04:00.230Z,54.90
2022-08-04T16:07:04.139Z,55.60
2022-08-04T16:09:45.269Z,55.40
2022-08-04T16:12:54.759Z,55.30
2022-08-04T16:15:41.634Z,55.30
2022-08-04T16:18:14.169Z,55.40
2022-08-04T16:20:55.928Z,55.70
2022-08-04T16:23:55.064Z,55.60
2022-08-04T16:26:46.161Z,56.00
2022-08-04T16:29:35.378Z,55.90
2022-08-04T16:32:19.395Z,56.30
2022-08-04T16:34:55.316Z,56.20
2022-08-04T16:37:32.858Z,56.80
2022-08-04T16:40:34.718Z,56.40
2022-08-04T16:43:06.002Z,56.80
2022-08-04T16:45:50.505Z,57.00
2022-08-04T16:48:19.656Z,56.70
2022-08-04T16:50:49.353Z,57.00
2022-08-04T16:53:52.577Z,56.90
2022-08-04T16:56:08.902Z,57.00
2022-08-04T16:58:36.972Z,57.10
2022-08-04T17:01:09.764Z,57.40
2022-08-04T17:03:37.745Z,57.00
2022-08-04T17:06:16.424Z,57.10
2022-08-04T17:08:45.667Z,57.10
2022-08-04T17:11:13.275Z,57.20
2022-08-04T17:14:01.933Z,57.20
2022-08-04T17:16:29.535Z,57.30
2022-08-04T17:18:58.054Z,57.10
2022-08-04T17:21:27.228Z,57.20
2022-08-04T17:24:15.803Z,57.10
2022-08-04T17:26:53.614Z,57.20
2022-08-04T17:29:42.221Z,57.40
2022-08-04T17:32:13.953Z,57.40
2022-08-04T17:34:40.936Z,57.60
2022-08-04T17:37:38.462Z,57.70
2022-08-04T17:40:13.115Z,57.70
2022-08-04T17:42:41.377Z,57.90
2022-08-04T17:45:50.762Z,57.90
2022-08-04T17:47:57.746Z,58.10
2022-08-04T17:50:25.598Z,58.00
2022-08-04T17:52:59.715Z,57.70
2022-08-04T17:55:39.553Z,57.60
2022-08-04T17:58:21.423Z,57.80
2022-08-04T18:01:16.360Z,57.80
2022-08-04T18:03:52.877Z,57.90
2022-08-04T18:06:21.868Z,57.90
2022-08-04T18:08:54.753Z,58.00
2022-08-04T18:11:28.893Z,58.20
2022-08-04T18:14:08.567Z,58.20
2022-08-04T18:16:44.278Z,58.30
2022-08-04T18:19:12.958Z,58.40
2022-08-04T18:21:46.359Z,58.40
2022-08-04T18:24:28.542Z,58.50
2022-08-04T18:27:06.297Z,58.60
2022-08-04T18:29:34.070Z,58.50
2022-08-04T18:32:06.357Z,58.70
2022-08-04T18:34:40.954Z,58.60
2022-08-04T18:38:06.527Z,58.70
2022-08-04T18:40:27.350Z,58.90
2022-08-04T18:43:00.568Z,59.00
2022-08-04T18:45:34.521Z,58.90
2022-08-04T18:48:14.591Z,59.00
2022-08-04T18:51:11.027Z,59.20
2022-08-04T18:56:20.083Z,59.20
2022-08-04T18:59:00.647Z,59.10
2022-08-04T19:01:29.941Z,59.20
2022-08-04T19:04:33.337Z,59.30
2022-08-04T19:07:29.686Z,59.40
2022-08-04T19:09:52.104Z,59.40
2022-08-04T19:12:26.895Z,59.50
2022-08-04T19:14:58.378Z,59.60
2022-08-04T19:17:54.117Z,59.70
2022-08-04T19:20:25.722Z,59.90
2022-08-04T19:25:59.112Z,60.20
2022-08-04T19:28:29.758Z,60.20
2022-08-04T19:31:00.244Z,60.40
2022-08-04T19:33:55.570Z,60.50
2022-08-04T19:36:17.057Z,60.70
2022-08-04T19:38:45.342Z,60.80
2022-08-04T19:41:14.501Z,61.00
2022-08-04T19:43:43.994Z,61.10
2022-08-04T19:46:12.665Z,61.10
2022-08-04T19:48:39.751Z,61.30
2022-08-04T19:51:07.816Z,61.30
2022-08-04T19:53:37.530Z,61.60
2022-08-04T19:56:10.281Z,61.70
2022-08-04T19:58:38.632Z,61.60
2022-08-04T20:01:28.619Z,61.80
2022-08-04T20:04:10.234Z,62.20
2022-08-04T20:06:38.448Z,62.00
2022-08-04T20:09:26.313Z,62.20
2022-08-04T20:11:53.012Z,62.30
2022-08-04T20:14:22.853Z,62.50
2022-08-04T20:16:59.042Z,62.50
2022-08-04T20:19:27.509Z,62.60
2022-08-04T20:21:56.555Z,62.60
2022-08-04T20:24:38.876Z,62.90
2022-08-04T20:27:14.593Z,63.10
2022-08-04T20:29:48.642Z,63.00
2022-08-04T20:32:17.352Z,63.60
2022-08-04T20:34:48.298Z,63.40
2022-08-04T20:37:15.608Z,63.30
2022-08-04T20:39:42.656Z,63.50
2022-08-04T20:42:11.413Z,63.70
2022-08-04T20:44:42.282Z,63.50
2022-08-04T20:47:14.006Z,63.80
2022-08-04T20:49:41.103Z,64.00
2022-08-04T20:52:16.611Z,64.00
2022-08-04T20:54:48.558Z,64.20
2022-08-04T20:57:16.609Z,64.10
2022-08-04T20:59:59.797Z,64.30
2022-08-04T21:02:28.105Z,64.10
2022-08-04T21:04:56.349Z,64.10
2022-08-04T21:07:25.521Z,64.20
2022-08-04T21:09:52.803Z,64.40
2022-08-04T21:12:27.526Z,64.80
2022-08-04T21:14:57.200Z,64.70
2022-08-04T21:17:58.113Z,64.80
2022-08-04T21:20:24.665Z,64.70
2022-08-04T21:22:59.483Z,65.20
2022-08-04T21:25:27.143Z,64.30
2022-08-04T21:27:54.137Z,65.00
2022-08-04T21:30:25.224Z,65.20
2022-08-04T21:32:53.486Z,65.30
2022-08-04T21:38:17.165Z,65.50
2022-08-04T21:40:53.679Z,65.90
2022-08-04T21:43:21.105Z,65.80
2022-08-04T21:45:51.053Z,65.60
2022-08-04T21:48:18.518Z,66.30
2022-08-04T21:50:50.552Z,66.00
2022-08-04T21:53:19.666Z,66.00
2022-08-04T21:56:05.679Z,66.50
2022-08-04T21:58:34.725Z,66.30
2022-08-04T22:01:05.850Z,66.50
2022-08-04T22:03:52.500Z,66.50
2022-08-04T22:06:28.639Z,66.70
2022-08-04T22:08:58.084Z,66.50
2022-08-04T22:11:44.226Z,66.40
2022-08-04T22:14:15.254Z,66.70
2022-08-04T22:16:45.313Z,66.50
2022-08-04T22:19:13.609Z,66.80
2022-08-04T22:21:45.408Z,66.60
2022-08-04T22:24:15.058Z,66.60
2022-08-04T22:26:45.087Z,66.80
2022-08-04T22:29:15.508Z,66.80
2022-08-04T22:31:56.777Z,66.70
2022-08-04T22:34:24.662Z,67.30
2022-08-04T22:36:52.544Z,66.90
2022-08-04T22:39:23.659Z,67.60
2022-08-04T22:42:04.238Z,67.00
2022-08-04T22:44:33.149Z,67.20
2022-08-04T22:47:01.237Z,67.40
2022-08-04T22:49:31.264Z,67.10
2022-08-04T22:51:58.652Z,67.30
2022-08-04T22:54:28.594Z,67.50
2022-08-04T22:56:56.959Z,67.30
2022-08-04T22:59:24.193Z,68.30
2022-08-04T23:02:00.559Z,67.40
2022-08-04T23:04:32.529Z,67.40
2022-08-04T23:07:00.161Z,67.70
2022-08-04T23:09:50.311Z,68.10
2022-08-04T23:12:24.418Z,67.70
2022-08-04T23:14:54.719Z,67.30
2022-08-04T23:17:22.196Z,67.80
2022-08-04T23:19:57.857Z,67.50
2022-08-04T23:22:41.034Z,67.90
2022-08-04T23:25:16.461Z,67.70
2022-08-04T23:27:48.108Z,67.80
2022-08-04T23:30:19.766Z,67.70
2022-08-04T23:32:49.009Z,68.00
2022-08-04T23:35:18.487Z,67.90
2022-08-04T23:37:56.822Z,68.00
2022-08-04T23:40:33.591Z,68.40
2022-08-04T23:43:02.273Z,68.20
2022-08-04T23:46:06.930Z,68.20
2022-08-04T23:48:31.721Z,68.30
2022-08-04T23:51:03.633Z,68.40
2022-08-04T23:53:41.632Z,68.70
2022-08-04T23:56:29.008Z,68.70
2022-08-04T23:58:56.370Z,68.60
